createdAt,value
2018-07-14T00:00:08.123Z,2.10
2018-07-14T00:01:08.111Z,2.30
2018-07-14T00:02:08.100Z,2.20
2018-07-14T00:03:08.113Z,2.40
2018-07-14T00:04:08.078Z,2.50
2018-07-14T00:05:08.067Z,2.30
2018-07-14T00:06:08.058Z,2.00
2018-07-14T00:07:08.046Z,2.10
2018-07-14T00:08:08.059Z,2.30
2018-07-14T00:09:08.023Z,2.30
2018-07-14T00:10:08.095Z,2.20
2018-07-14T00:11:08.003Z,2.10
2018-07-14T00:12:07.991Z,2.70
2018-07-14T00:13:08.003Z,3.20
2018-07-14T00:14:07.969Z,2.20
2018-07-14T00:15:07.958Z,2.30
2018-07-14T00:16:07.949Z,2.30
2018-07-14T00:17:07.935Z,2.40
2018-07-14T00:18:07.948Z,2.60
2018-07-14T00:19:07.913Z,2.40
2018-07-14T00:20:07.904Z,2.30
2018-07-14T00:21:07.893Z,2.20
2018-07-14T00:22:07.881Z,2.60
2018-07-14T00:23:07.892Z,2.20
2018-07-14T00:24:07.861Z,2.40
2018-07-14T00:25:07.848Z,2.10
2018-07-14T00:26:07.837Z,2.30
2018-07-14T00:27:07.828Z,2.00
2018-07-14T00:28:07.838Z,2.50
2018-07-14T00:29:07.807Z,2.20
2018-07-14T00:30:07.795Z,2.10
2018-07-14T00:31:07.782Z,1.70
2018-07-14T00:32:07.773Z,2.10
2018-07-14T00:33:07.781Z,2.20
2018-07-14T00:34:07.749Z,2.10
2018-07-14T00:35:07.737Z,2.50
2018-07-14T00:36:07.727Z,1.80
2018-07-14T00:37:07.716Z,2.70
2018-07-14T00:38:07.729Z,2.50
2018-07-14T00:39:07.698Z,2.60
2018-07-14T00:40:07.683Z,2.10
2018-07-14T00:41:07.672Z,3.20
2018-07-14T00:42:07.662Z,2.70
2018-07-14T00:43:07.672Z,2.10
2018-07-14T00:44:07.687Z,2.00
2018-07-14T00:45:07.627Z,2.20
2018-07-14T00:46:07.617Z,2.30
2018-07-14T00:47:07.606Z,3.70
2018-07-14T00:48:07.618Z,3.80
2018-07-14T00:49:07.590Z,3.80
2018-07-14T00:50:07.572Z,3.20
2018-07-14T00:51:07.562Z,2.80
2018-07-14T00:52:07.552Z,2.10
2018-07-14T00:53:07.565Z,2.20
2018-07-14T00:54:07.528Z,2.10
2018-07-14T00:55:07.518Z,2.10
2018-07-14T00:56:07.508Z,2.00
2018-07-14T00:57:07.497Z,2.80
2018-07-14T00:58:07.508Z,2.10
2018-07-14T00:59:07.474Z,4.50
2018-07-14T01:00:07.463Z,2.00
2018-07-14T01:01:07.454Z,2.50
2018-07-14T01:02:07.444Z,1.90
2018-07-14T01:03:07.454Z,2.20
2018-07-14T01:04:07.420Z,2.10
2018-07-14T01:05:07.410Z,2.00
2018-07-14T01:06:07.398Z,2.10
2018-07-14T01:07:07.390Z,2.90
2018-07-14T01:08:07.401Z,1.90
2018-07-14T01:09:07.364Z,2.10
2018-07-14T01:10:07.353Z,2.20
2018-07-14T01:11:07.342Z,2.10
2018-07-14T01:12:07.341Z,2.10
2018-07-14T01:13:07.346Z,2.10
2018-07-14T01:14:07.311Z,1.80
2018-07-14T01:15:07.299Z,2.30
2018-07-14T01:16:07.288Z,2.00
2018-07-14T01:17:07.277Z,2.20
2018-07-14T01:18:07.271Z,2.20
2018-07-14T01:19:07.277Z,2.40
2018-07-14T01:20:07.243Z,2.20
2018-07-14T01:21:07.233Z,1.80
2018-07-14T01:22:07.221Z,1.80
2018-07-14T01:23:07.236Z,1.80
2018-07-14T01:24:07.200Z,1.90
2018-07-14T01:25:07.189Z,2.30
2018-07-14T01:26:07.179Z,1.90
2018-07-14T01:27:07.166Z,2.10
2018-07-14T01:28:07.163Z,2.10
2018-07-14T01:29:07.169Z,2.80
2018-07-14T01:30:07.134Z,2.30
2018-07-14T01:31:07.124Z,2.40
2018-07-14T01:32:07.112Z,2.00
2018-07-14T01:33:07.101Z,2.40
2018-07-14T01:34:07.114Z,1.90
2018-07-14T01:35:07.079Z,1.90
2018-07-14T01:36:07.067Z,2.30
2018-07-14T01:37:07.057Z,2.20
2018-07-14T01:38:07.045Z,2.10
2018-07-14T01:39:07.057Z,2.40
2018-07-14T01:40:07.023Z,2.70
2018-07-14T01:41:07.037Z,2.20
2018-07-14T01:42:07.001Z,1.70
2018-07-14T01:43:06.991Z,2.40
2018-07-14T01:44:07.002Z,1.90
2018-07-14T01:45:06.969Z,2.20
2018-07-14T01:46:06.957Z,2.30
2018-07-14T01:47:06.964Z,2.10
2018-07-14T01:48:06.937Z,2.00
2018-07-14T01:49:06.949Z,2.30
2018-07-14T01:50:06.915Z,2.30
2018-07-14T01:51:06.906Z,2.20
2018-07-14T01:52:06.892Z,1.90
2018-07-14T01:53:06.883Z,2.80
2018-07-14T01:54:06.896Z,3.90
2018-07-14T01:55:06.858Z,3.40
2018-07-14T01:56:06.847Z,1.90
2018-07-14T01:57:06.838Z,2.70
2018-07-14T01:58:06.825Z,2.00
2018-07-14T01:59:06.839Z,2.10
2018-07-14T02:00:06.804Z,2.00
2018-07-14T02:01:06.794Z,2.30
2018-07-14T02:02:06.783Z,2.20
2018-07-14T02:03:06.772Z,3.50
2018-07-14T02:04:06.783Z,2.20
2018-07-14T02:05:06.755Z,2.30
2018-07-14T02:06:06.738Z,2.60
2018-07-14T02:07:06.727Z,2.20
2018-07-14T02:08:06.720Z,2.30
2018-07-14T02:09:06.729Z,1.90
2018-07-14T02:10:06.694Z,2.10
2018-07-14T02:11:06.682Z,1.90
2018-07-14T02:12:06.673Z,2.00
2018-07-14T02:13:06.664Z,2.30
2018-07-14T02:14:06.674Z,2.20
2018-07-14T02:15:06.639Z,1.90
2018-07-14T02:16:06.629Z,2.20
2018-07-14T02:17:06.619Z,2.10
2018-07-14T02:18:06.607Z,1.80
2018-07-14T02:19:06.623Z,2.30
2018-07-14T02:20:06.584Z,2.20
2018-07-14T02:21:06.573Z,2.50
2018-07-14T02:22:06.563Z,2.20
2018-07-14T02:23:06.551Z,2.40
2018-07-14T02:24:06.563Z,1.90
2018-07-14T02:25:06.529Z,2.30
2018-07-14T02:26:06.519Z,2.20
2018-07-14T02:27:06.512Z,2.30
2018-07-14T02:28:06.496Z,2.30
2018-07-14T02:29:06.511Z,2.40
2018-07-14T02:30:06.478Z,2.30
2018-07-14T02:31:06.466Z,2.10
2018-07-14T02:32:06.453Z,2.10
2018-07-14T02:33:06.441Z,2.50
2018-07-14T02:34:06.453Z,2.30
2018-07-14T02:35:06.421Z,2.20
2018-07-14T02:36:06.411Z,3.00
2018-07-14T02:37:06.397Z,2.10
2018-07-14T02:38:06.389Z,2.10
2018-07-14T02:39:06.397Z,2.40
2018-07-14T02:40:06.364Z,2.40
2018-07-14T02:41:06.354Z,1.80
2018-07-14T02:42:06.343Z,2.40
2018-07-14T02:43:06.332Z,2.00
2018-07-14T02:44:06.345Z,2.50
2018-07-14T02:45:06.309Z,1.90
2018-07-14T02:46:06.303Z,2.20
2018-07-14T02:47:06.301Z,3.00
2018-07-14T02:48:06.277Z,2.10
2018-07-14T02:49:06.291Z,1.90
2018-07-14T02:50:06.255Z,2.00
2018-07-14T02:51:06.245Z,1.70
2018-07-14T02:52:06.234Z,5.60
2018-07-14T02:53:06.224Z,3.50
2018-07-14T02:54:06.214Z,2.20
2018-07-14T02:55:06.224Z,2.30
2018-07-14T02:56:06.189Z,2.40
2018-07-14T02:57:06.177Z,2.00
2018-07-14T02:58:06.167Z,2.20
2018-07-14T02:59:06.180Z,2.30
2018-07-14T03:00:06.145Z,1.90
2018-07-14T03:01:06.135Z,3.40
2018-07-14T03:02:06.124Z,2.20
2018-07-14T03:03:06.113Z,2.20
2018-07-14T03:04:06.102Z,2.10
2018-07-14T03:05:06.115Z,3.20
2018-07-14T03:06:06.079Z,2.10
2018-07-14T03:07:06.068Z,6.50
2018-07-14T03:08:06.075Z,2.30
2018-07-14T03:09:06.049Z,2.60
2018-07-14T03:10:06.060Z,2.00
2018-07-14T03:11:06.026Z,2.10
2018-07-14T03:12:06.019Z,2.00
2018-07-14T03:13:06.004Z,2.10
2018-07-14T03:14:05.998Z,2.20
2018-07-14T03:15:06.006Z,2.70
2018-07-14T03:16:05.971Z,2.10
2018-07-14T03:17:05.959Z,2.00
2018-07-14T03:18:05.951Z,1.90
2018-07-14T03:19:05.944Z,2.20
2018-07-14T03:20:05.952Z,2.20
2018-07-14T03:21:05.915Z,2.10
2018-07-14T03:22:05.907Z,2.10
2018-07-14T03:23:05.895Z,2.10
2018-07-14T03:24:05.883Z,2.10
2018-07-14T03:25:05.906Z,2.80
2018-07-14T03:26:05.861Z,2.30
2018-07-14T03:27:05.849Z,2.50
2018-07-14T03:28:05.839Z,2.30
2018-07-14T03:29:05.828Z,2.40
2018-07-14T03:30:05.847Z,2.00
2018-07-14T03:31:05.806Z,2.10
2018-07-14T03:32:05.798Z,2.60
2018-07-14T03:33:05.813Z,2.10
2018-07-14T03:34:05.777Z,2.00
2018-07-14T03:35:05.786Z,2.20
2018-07-14T03:36:05.752Z,2.60
2018-07-14T03:37:05.741Z,2.20
2018-07-14T03:38:05.731Z,2.10
2018-07-14T03:39:05.718Z,2.80
2018-07-14T03:40:05.730Z,2.30
2018-07-14T03:41:05.696Z,2.10
2018-07-14T03:42:05.834Z,2.10
2018-07-14T03:43:05.674Z,2.20
2018-07-14T03:44:05.664Z,2.10
2018-07-14T03:45:05.676Z,2.30
2018-07-14T03:46:05.641Z,2.00
2018-07-14T03:47:05.631Z,2.20
2018-07-14T03:48:05.620Z,2.30
2018-07-14T03:49:05.608Z,2.30
2018-07-14T03:50:05.621Z,2.10
2018-07-14T03:51:05.592Z,2.40
2018-07-14T03:52:05.576Z,2.60
2018-07-14T03:53:05.566Z,2.00
2018-07-14T03:54:05.553Z,2.20
2018-07-14T03:55:05.566Z,2.10
2018-07-14T03:56:05.533Z,2.40
2018-07-14T03:57:05.522Z,2.30
2018-07-14T03:58:05.510Z,2.00
2018-07-14T03:59:05.500Z,2.20
2018-07-14T04:00:05.511Z,2.20
2018-07-14T04:01:05.476Z,2.60
2018-07-14T04:02:05.465Z,2.30
2018-07-14T04:03:05.455Z,2.20
2018-07-14T04:04:05.444Z,2.00
2018-07-14T04:05:05.458Z,2.40
2018-07-14T04:06:05.425Z,1.90
2018-07-14T04:07:05.410Z,2.30
2018-07-14T04:08:05.400Z,2.10
2018-07-14T04:09:05.389Z,2.20
2018-07-14T04:10:05.401Z,2.30
2018-07-14T04:11:05.366Z,2.30
2018-07-14T04:12:05.356Z,2.30
2018-07-14T04:13:05.345Z,2.20
2018-07-14T04:14:05.339Z,2.30
2018-07-14T04:15:05.348Z,2.40
2018-07-14T04:16:05.316Z,2.10
2018-07-14T04:17:05.301Z,2.40
2018-07-14T04:18:05.291Z,2.50
2018-07-14T04:19:05.280Z,2.40
2018-07-14T04:20:05.294Z,2.70
2018-07-14T04:21:05.263Z,2.20
2018-07-14T04:22:05.245Z,2.20
2018-07-14T04:23:05.236Z,2.30
2018-07-14T04:24:05.226Z,2.40
2018-07-14T04:25:05.236Z,2.70
2018-07-14T04:26:05.203Z,1.90
2018-07-14T04:27:05.191Z,2.30
2018-07-14T04:28:05.180Z,2.20
2018-07-14T04:29:05.170Z,2.10
2018-07-14T04:30:05.181Z,2.00
2018-07-14T04:31:05.147Z,2.40
2018-07-14T04:32:05.236Z,2.40
2018-07-14T04:33:05.126Z,2.60
2018-07-14T04:34:05.114Z,2.10
2018-07-14T04:35:05.129Z,2.00
2018-07-14T04:36:05.094Z,1.90
2018-07-14T04:37:05.081Z,2.00
2018-07-14T04:38:05.070Z,2.30
2018-07-14T04:39:05.060Z,2.30
2018-07-14T04:40:05.049Z,1.90
2018-07-14T04:41:05.063Z,2.20
2018-07-14T04:42:05.029Z,2.30
2018-07-14T04:43:05.017Z,1.90
2018-07-14T04:44:05.007Z,2.00
2018-07-14T04:45:05.017Z,1.90
2018-07-14T04:46:04.983Z,2.30
2018-07-14T04:47:04.972Z,2.40
2018-07-14T04:48:04.961Z,2.30
2018-07-14T04:49:04.949Z,2.60
2018-07-14T04:50:04.941Z,2.40
2018-07-14T04:51:04.952Z,2.40
2018-07-14T04:52:04.916Z,2.40
2018-07-14T04:53:04.972Z,2.30
2018-07-14T04:54:04.896Z,2.40
2018-07-14T04:55:04.885Z,2.20
2018-07-14T04:56:04.897Z,2.40
2018-07-14T04:57:04.862Z,2.80
2018-07-14T04:58:04.852Z,2.10
2018-07-14T04:59:04.841Z,2.00
2018-07-14T05:00:04.829Z,2.20
2018-07-14T05:01:04.842Z,2.10
2018-07-14T05:02:04.810Z,2.10
2018-07-14T05:03:04.795Z,2.50
2018-07-14T05:04:04.785Z,2.30
2018-07-14T05:05:04.774Z,2.30
2018-07-14T05:06:04.787Z,2.30
2018-07-14T05:07:04.752Z,2.30
2018-07-14T05:08:04.747Z,3.10
2018-07-14T05:09:04.730Z,2.40
2018-07-14T05:10:04.719Z,2.30
2018-07-14T05:11:04.733Z,2.30
2018-07-14T05:12:04.697Z,2.30
2018-07-14T05:13:04.687Z,2.20
2018-07-14T05:14:04.676Z,2.30
2018-07-14T05:15:04.664Z,2.70
2018-07-14T05:16:04.679Z,2.40
2018-07-14T05:17:04.644Z,2.50
2018-07-14T05:18:04.632Z,2.40
2018-07-14T05:19:04.622Z,2.20
2018-07-14T05:20:04.609Z,2.50
2018-07-14T05:21:04.621Z,2.20
2018-07-14T05:22:04.588Z,2.60
2018-07-14T05:23:04.580Z,2.60
2018-07-14T05:24:04.565Z,2.40
2018-07-14T05:25:04.554Z,2.20
2018-07-14T05:26:04.569Z,2.00
2018-07-14T05:27:04.533Z,2.40
2018-07-14T05:28:04.520Z,2.20
2018-07-14T05:29:04.510Z,2.40
2018-07-14T05:30:04.501Z,2.30
2018-07-14T05:31:04.511Z,2.50
2018-07-14T05:32:04.484Z,2.50
2018-07-14T05:33:04.466Z,2.20
2018-07-14T05:34:04.456Z,2.50
2018-07-14T05:35:04.448Z,2.40
2018-07-14T05:36:04.458Z,2.40
2018-07-14T05:37:04.423Z,2.30
2018-07-14T05:38:04.410Z,2.60
2018-07-14T05:39:04.401Z,2.60
2018-07-14T05:40:04.390Z,2.70
2018-07-14T05:41:04.402Z,2.50
2018-07-14T05:42:04.368Z,2.60
2018-07-14T05:43:04.357Z,2.50
2018-07-14T05:44:04.463Z,2.70
2018-07-14T05:45:04.360Z,2.50
2018-07-14T05:46:04.348Z,2.80
2018-07-14T05:47:04.313Z,2.50
2018-07-14T05:48:04.303Z,2.60
2018-07-14T05:49:04.292Z,2.60
2018-07-14T05:50:04.281Z,2.20
2018-07-14T05:51:04.294Z,2.70
2018-07-14T05:52:04.284Z,2.50
2018-07-14T05:53:04.249Z,2.40
2018-07-14T05:54:04.237Z,2.50
2018-07-14T05:55:04.225Z,2.40
2018-07-14T05:56:04.239Z,2.60
2018-07-14T05:57:04.204Z,2.70
2018-07-14T05:58:04.192Z,2.60
2018-07-14T05:59:04.182Z,2.50
2018-07-14T06:00:04.172Z,2.80
2018-07-14T06:01:04.183Z,2.40
2018-07-14T06:02:04.149Z,2.70
2018-07-14T06:03:04.137Z,3.40
2018-07-14T06:04:04.127Z,3.00
2018-07-14T06:05:04.116Z,3.00
2018-07-14T06:06:04.132Z,2.90
2018-07-14T06:07:04.093Z,3.10
2018-07-14T06:08:04.082Z,2.60
2018-07-14T06:09:04.072Z,2.70
2018-07-14T06:10:04.061Z,3.20
2018-07-14T06:11:04.075Z,2.70
2018-07-14T06:12:04.039Z,2.80
2018-07-14T06:13:04.027Z,2.60
2018-07-14T06:14:04.019Z,3.00
2018-07-14T06:15:04.006Z,3.00
2018-07-14T06:16:04.020Z,3.60
2018-07-14T06:17:04.019Z,3.20
2018-07-14T06:18:03.972Z,3.40
2018-07-14T06:19:03.962Z,2.70
2018-07-14T06:20:03.952Z,3.20
2018-07-14T06:21:03.966Z,2.90
2018-07-14T06:22:03.929Z,3.20
2018-07-14T06:23:03.922Z,2.80
2018-07-14T06:24:03.909Z,2.90
2018-07-14T06:25:03.896Z,3.00
2018-07-14T06:26:03.887Z,2.80
2018-07-14T06:27:03.898Z,2.70
2018-07-14T06:28:03.862Z,2.90
2018-07-14T06:29:03.854Z,3.60
2018-07-14T06:30:03.844Z,2.70
2018-07-14T06:31:03.831Z,2.70
2018-07-14T06:32:03.905Z,3.10
2018-07-14T06:33:03.809Z,2.80
2018-07-14T06:34:03.797Z,3.50
2018-07-14T06:35:03.789Z,2.90
2018-07-14T06:36:03.778Z,3.10
2018-07-14T06:37:03.793Z,2.90
2018-07-14T06:38:03.759Z,3.30
2018-07-14T06:39:03.744Z,3.20
2018-07-14T06:40:03.731Z,2.80
2018-07-14T06:41:03.721Z,3.10
2018-07-14T06:42:03.732Z,3.10
2018-07-14T06:43:03.701Z,3.30
2018-07-14T06:44:03.688Z,2.50
2018-07-14T06:45:03.677Z,2.90
2018-07-14T06:46:03.666Z,3.60
2018-07-14T06:47:03.681Z,3.10
2018-07-14T06:48:03.646Z,2.70
2018-07-14T06:49:03.634Z,3.10
2018-07-14T06:50:03.622Z,2.90
2018-07-14T06:51:03.613Z,2.80
2018-07-14T06:52:03.623Z,3.10
2018-07-14T06:53:03.589Z,3.30
2018-07-14T06:54:03.582Z,3.10
2018-07-14T06:55:03.570Z,3.30
2018-07-14T06:56:03.558Z,3.30
2018-07-14T06:57:03.569Z,3.10
2018-07-14T06:58:03.534Z,3.00
2018-07-14T06:59:03.537Z,3.20
2018-07-14T07:00:03.514Z,3.20
2018-07-14T07:01:03.501Z,2.90
2018-07-14T07:02:03.513Z,2.90
2018-07-14T07:03:03.480Z,3.10
2018-07-14T07:04:03.469Z,2.80
2018-07-14T07:05:03.459Z,2.70
2018-07-14T07:06:03.447Z,3.60
2018-07-14T07:07:03.459Z,2.90
2018-07-14T07:08:03.425Z,3.60
2018-07-14T07:09:03.414Z,3.30
2018-07-14T07:10:03.403Z,3.00
2018-07-14T07:11:03.398Z,2.90
2018-07-14T07:12:03.409Z,2.80
2018-07-14T07:13:03.372Z,3.40
2018-07-14T07:14:03.361Z,3.30
2018-07-14T07:15:03.351Z,3.10
2018-07-14T07:16:03.341Z,3.50
2018-07-14T07:17:03.350Z,4.30
2018-07-14T07:18:03.316Z,3.10
2018-07-14T07:19:03.306Z,2.90
2018-07-14T07:20:03.294Z,3.10
2018-07-14T07:21:03.283Z,2.90
2018-07-14T07:22:03.297Z,3.30
2018-07-14T07:23:03.262Z,3.50
2018-07-14T07:24:03.250Z,4.20
2018-07-14T07:25:03.239Z,3.80
2018-07-14T07:26:03.228Z,3.80
2018-07-14T07:27:03.241Z,3.10
2018-07-14T07:28:03.206Z,3.00
2018-07-14T07:29:03.196Z,3.20
2018-07-14T07:30:03.183Z,3.60
2018-07-14T07:31:03.173Z,3.30
2018-07-14T07:32:03.186Z,3.30
2018-07-14T07:33:03.151Z,2.80
2018-07-14T07:34:03.167Z,3.70
2018-07-14T07:35:03.146Z,3.00
2018-07-14T07:36:03.119Z,3.70
2018-07-14T07:37:03.131Z,3.40
2018-07-14T07:38:03.098Z,3.10
2018-07-14T07:39:03.084Z,3.30
2018-07-14T07:40:03.074Z,3.80
2018-07-14T07:41:03.065Z,3.70
2018-07-14T07:42:03.075Z,3.60
2018-07-14T07:43:03.042Z,3.10
2018-07-14T07:44:03.038Z,4.30
2018-07-14T07:45:03.020Z,3.60
2018-07-14T07:46:03.008Z,4.00
2018-07-14T07:47:03.022Z,3.50
2018-07-14T07:48:02.987Z,3.70
2018-07-14T07:49:02.976Z,3.50
2018-07-14T07:50:02.968Z,4.30
2018-07-14T07:51:02.956Z,3.50
2018-07-14T07:52:02.966Z,3.50
2018-07-14T07:53:02.931Z,3.70
2018-07-14T07:54:02.921Z,4.00
2018-07-14T07:55:02.911Z,3.40
2018-07-14T07:56:02.900Z,3.20
2018-07-14T07:57:02.889Z,3.70
2018-07-14T07:58:02.901Z,3.60
2018-07-14T07:59:02.932Z,4.20
2018-07-14T08:00:02.854Z,3.70
2018-07-14T08:01:02.844Z,4.20
2018-07-14T08:02:02.857Z,3.80
2018-07-14T08:03:02.825Z,3.50
2018-07-14T08:04:02.812Z,3.60
2018-07-14T08:05:02.801Z,3.20
2018-07-14T08:06:02.789Z,3.30
2018-07-14T08:07:02.782Z,3.40
2018-07-14T08:08:02.793Z,4.10
2018-07-14T08:09:02.756Z,3.30
2018-07-14T08:10:02.750Z,3.40
2018-07-14T08:11:02.734Z,3.70
2018-07-14T08:12:02.728Z,3.60
2018-07-14T08:13:02.734Z,4.70
2018-07-14T08:14:02.702Z,3.40
2018-07-14T08:15:02.690Z,4.40
2018-07-14T08:16:02.708Z,4.30
2018-07-14T08:17:02.671Z,4.30
2018-07-14T08:18:02.682Z,4.20
2018-07-14T08:19:02.646Z,5.30
2018-07-14T08:20:02.640Z,3.90
2018-07-14T08:21:02.626Z,4.10
2018-07-14T08:22:02.615Z,3.50
2018-07-14T08:23:02.632Z,3.90
2018-07-14T08:24:02.592Z,4.40
2018-07-14T08:25:02.582Z,5.10
2018-07-14T08:26:02.572Z,5.70
2018-07-14T08:27:02.560Z,4.70
2018-07-14T08:28:02.571Z,3.70
2018-07-14T08:29:02.537Z,4.00
2018-07-14T08:30:02.527Z,4.80
2018-07-14T08:31:02.515Z,4.20
2018-07-14T08:32:02.506Z,4.40
2018-07-14T08:33:02.519Z,4.10
2018-07-14T08:34:02.483Z,4.00
2018-07-14T08:35:02.472Z,3.60
2018-07-14T08:36:02.462Z,3.60
2018-07-14T08:37:02.451Z,3.90
2018-07-14T08:38:02.464Z,3.50
2018-07-14T08:39:02.431Z,4.10
2018-07-14T08:40:02.417Z,5.60
2018-07-14T08:41:02.411Z,4.50
2018-07-14T08:42:02.399Z,4.90
2018-07-14T08:43:02.411Z,4.30
2018-07-14T08:44:02.374Z,4.80
2018-07-14T08:45:02.364Z,4.00
2018-07-14T08:46:02.351Z,4.00
2018-07-14T08:47:02.347Z,3.90
2018-07-14T08:48:02.361Z,4.00
2018-07-14T08:49:02.317Z,3.80
2018-07-14T08:50:02.309Z,3.70
2018-07-14T08:51:02.355Z,4.10
2018-07-14T08:52:02.285Z,3.50
2018-07-14T08:53:02.299Z,4.10
2018-07-14T08:54:02.267Z,4.00
2018-07-14T08:55:02.253Z,3.80
2018-07-14T08:56:02.241Z,4.10
2018-07-14T08:57:02.231Z,3.80
2018-07-14T08:58:02.275Z,5.60
2018-07-14T08:59:02.207Z,3.00
2018-07-14T09:00:02.198Z,4.00
2018-07-14T09:01:02.187Z,3.80
2018-07-14T09:02:02.177Z,3.50
2018-07-14T09:03:02.187Z,4.10
2018-07-14T09:04:02.152Z,4.50
2018-07-14T09:05:02.141Z,3.10
2018-07-14T09:06:02.131Z,4.20
2018-07-14T09:07:02.119Z,3.70
2018-07-14T09:08:02.135Z,3.60
2018-07-14T09:09:02.100Z,3.60
2018-07-14T09:10:02.087Z,3.90
2018-07-14T09:11:02.078Z,3.80
2018-07-14T09:12:02.065Z,3.90
2018-07-14T09:13:02.078Z,3.20
2018-07-14T09:14:02.044Z,4.00
2018-07-14T09:15:02.032Z,3.70
2018-07-14T09:16:02.021Z,3.30
2018-07-14T09:17:02.011Z,3.40
2018-07-14T09:18:02.025Z,3.50
2018-07-14T09:19:01.987Z,3.50
2018-07-14T09:20:01.981Z,3.90
2018-07-14T09:21:01.972Z,3.90
2018-07-14T09:22:01.966Z,3.40
2018-07-14T09:23:01.968Z,4.90
2018-07-14T09:24:01.933Z,4.00
2018-07-14T09:25:01.924Z,4.00
2018-07-14T09:26:01.961Z,3.70
2018-07-14T09:27:01.902Z,5.20
2018-07-14T09:28:01.913Z,3.90
2018-07-14T09:29:01.880Z,3.30
2018-07-14T09:30:01.868Z,3.20
2018-07-14T09:31:01.861Z,3.30
2018-07-14T09:32:01.847Z,3.80
2018-07-14T09:33:01.858Z,2.80
2018-07-14T09:34:01.828Z,3.40
2018-07-14T09:35:01.813Z,3.40
2018-07-14T09:36:01.803Z,3.50
2018-07-14T09:37:01.793Z,2.90
2018-07-14T09:38:01.900Z,3.70
2018-07-14T09:39:01.768Z,3.60
2018-07-14T09:40:01.757Z,3.50
2018-07-14T09:41:01.747Z,3.70
2018-07-14T09:42:01.737Z,3.20
2018-07-14T09:43:01.749Z,2.80
2018-07-14T09:44:01.756Z,3.30
2018-07-14T09:45:01.703Z,3.40
2018-07-14T09:46:01.693Z,4.50
2018-07-14T09:47:01.682Z,3.30
2018-07-14T09:48:01.672Z,3.00
2018-07-14T09:49:01.682Z,3.20
2018-07-14T09:50:01.648Z,3.60
2018-07-14T09:51:01.638Z,3.90
2018-07-14T09:52:01.626Z,3.30
2018-07-14T09:53:01.616Z,3.50
2018-07-14T09:54:01.627Z,3.40
2018-07-14T09:55:01.594Z,2.90
2018-07-14T09:56:01.583Z,3.50
2018-07-14T09:57:01.570Z,3.20
2018-07-14T09:58:01.565Z,3.20
2018-07-14T09:59:01.577Z,3.30
2018-07-14T10:00:01.542Z,3.70
2018-07-14T10:01:01.526Z,3.10
2018-07-14T10:02:01.516Z,3.30
2018-07-14T10:03:01.506Z,3.00
2018-07-14T10:04:01.517Z,3.50
2018-07-14T10:05:01.483Z,3.10
2018-07-14T10:06:01.503Z,3.30
2018-07-14T10:07:01.461Z,3.70
2018-07-14T10:08:01.458Z,3.10
2018-07-14T10:09:01.463Z,3.10
2018-07-14T10:10:01.454Z,3.20
2018-07-14T10:11:01.416Z,2.90
2018-07-14T10:12:01.405Z,3.40
2018-07-14T10:13:01.398Z,3.00
2018-07-14T10:14:01.408Z,3.30
2018-07-14T10:15:01.459Z,3.20
2018-07-14T10:16:01.361Z,3.40
2018-07-14T10:17:01.352Z,4.40
2018-07-14T10:18:01.339Z,3.10
2018-07-14T10:19:01.351Z,3.20
2018-07-14T10:20:01.318Z,4.00
2018-07-14T10:21:01.306Z,3.20
2018-07-14T10:22:01.298Z,3.30
2018-07-14T10:23:01.285Z,3.10
2018-07-14T10:24:01.301Z,2.80
2018-07-14T10:25:01.330Z,3.10
2018-07-14T10:26:01.314Z,3.50
2018-07-14T10:27:01.250Z,6.00
2018-07-14T10:28:01.229Z,4.50
2018-07-14T10:29:01.318Z,5.50
2018-07-14T10:30:01.207Z,3.20
2018-07-14T10:31:01.195Z,5.90
2018-07-14T10:32:01.184Z,5.60
2018-07-14T10:33:01.176Z,9.40
2018-07-14T10:34:01.278Z,5.90
2018-07-14T10:35:01.157Z,6.30
2018-07-14T10:36:01.140Z,5.10
2018-07-14T10:37:01.129Z,5.40
2018-07-14T10:38:01.120Z,4.10
2018-07-14T10:39:01.129Z,5.40
2018-07-14T10:40:01.097Z,6.20
2018-07-14T10:41:01.089Z,4.30
2018-07-14T10:42:01.119Z,6.80
2018-07-14T10:43:01.063Z,6.40
2018-07-14T10:44:01.074Z,6.80
2018-07-14T10:45:01.041Z,5.00
2018-07-14T10:46:01.029Z,7.70
2018-07-14T10:47:01.019Z,4.70
2018-07-14T10:48:01.009Z,4.30
2018-07-14T10:49:01.022Z,5.10
2018-07-14T10:50:00.985Z,4.40
2018-07-14T10:51:00.975Z,4.90
2018-07-14T10:52:00.963Z,5.80
2018-07-14T10:53:00.952Z,6.60
2018-07-14T10:54:00.963Z,7.40
2018-07-14T10:55:00.935Z,8.10
2018-07-14T10:56:00.919Z,10.50
2018-07-14T10:57:00.908Z,14.00
2018-07-14T10:58:00.956Z,9.10
2018-07-14T10:59:00.911Z,13.40
2018-07-14T11:00:00.873Z,12.70
2018-07-14T11:01:00.863Z,12.20
2018-07-14T11:02:00.852Z,8.00
2018-07-14T11:03:00.841Z,12.20
2018-07-14T11:04:00.852Z,12.30
2018-07-14T11:05:00.819Z,11.10
2018-07-14T11:06:00.808Z,11.10
2018-07-14T11:07:00.797Z,11.30
2018-07-14T11:08:00.787Z,7.60
2018-07-14T11:09:00.800Z,10.50
2018-07-14T11:10:00.763Z,10.00
2018-07-14T11:11:00.753Z,11.80
2018-07-14T11:12:00.747Z,12.20
2018-07-14T11:13:00.731Z,11.90
2018-07-14T11:14:00.749Z,9.00
2018-07-14T11:15:00.720Z,9.40
2018-07-14T11:16:00.697Z,9.50
2018-07-14T11:17:00.694Z,9.90
2018-07-14T11:18:00.678Z,11.20
2018-07-14T11:19:00.686Z,9.50
2018-07-14T11:20:00.659Z,10.80
2018-07-14T11:21:00.643Z,8.00
2018-07-14T11:22:00.633Z,9.60
2018-07-14T11:23:00.620Z,10.10
2018-07-14T11:24:00.632Z,8.70
2018-07-14T11:25:00.598Z,7.50
2018-07-14T11:26:00.593Z,9.00
2018-07-14T11:27:00.576Z,8.30
2018-07-14T11:28:00.565Z,7.70
2018-07-14T11:29:00.557Z,7.30
2018-07-14T11:30:00.567Z,7.80
2018-07-14T11:31:00.534Z,9.30
2018-07-14T11:32:00.521Z,7.60
2018-07-14T11:33:00.509Z,6.90
2018-07-14T11:34:00.521Z,8.40
2018-07-14T11:35:00.488Z,7.60
2018-07-14T11:36:00.476Z,8.90
2018-07-14T11:37:00.476Z,9.40
2018-07-14T11:38:00.454Z,9.70
2018-07-14T11:39:00.445Z,11.60
2018-07-14T11:40:00.472Z,9.70
2018-07-14T11:41:00.423Z,11.60
2018-07-14T11:42:00.415Z,8.90
2018-07-14T11:43:00.399Z,9.80
2018-07-14T11:44:00.390Z,9.00
2018-07-14T11:45:00.400Z,7.50
2018-07-14T11:46:00.366Z,10.00
2018-07-14T11:47:00.355Z,10.10
2018-07-14T11:48:00.408Z,9.30
2018-07-14T11:49:00.339Z,8.10
2018-07-14T11:50:00.344Z,10.10
2018-07-14T11:51:00.311Z,8.70
2018-07-14T11:52:00.300Z,9.20
2018-07-14T11:53:00.288Z,7.40
2018-07-14T11:54:00.277Z,8.40
2018-07-14T11:55:00.292Z,9.50
2018-07-14T11:56:00.261Z,13.00
2018-07-14T11:57:00.245Z,7.90
2018-07-14T11:58:00.234Z,8.30
2018-07-14T11:59:00.224Z,9.40
2018-07-14T12:00:00.235Z,8.50
2018-07-14T12:01:00.202Z,10.80
2018-07-14T12:02:00.249Z,8.90
2018-07-14T12:03:00.180Z,14.30
2018-07-14T12:04:00.168Z,8.00
2018-07-14T12:05:00.179Z,14.50
2018-07-14T12:06:00.146Z,8.00
2018-07-14T12:07:00.137Z,8.90
2018-07-14T12:08:00.124Z,11.00
2018-07-14T12:09:00.114Z,6.20
2018-07-14T12:10:00.126Z,9.80
2018-07-14T12:11:00.092Z,11.80
2018-07-14T12:12:00.080Z,11.20
2018-07-14T12:13:00.070Z,8.90
2018-07-14T12:14:00.058Z,11.30
2018-07-14T12:15:00.078Z,13.50
2018-07-14T12:16:00.040Z,10.80
2018-07-14T12:17:00.027Z,11.90
2018-07-14T12:18:00.018Z,12.00
2018-07-14T12:19:00.004Z,12.80
2018-07-14T12:20:00.019Z,13.80
2018-07-14T12:20:59.983Z,10.30
2018-07-14T12:21:59.970Z,9.60
2018-07-14T12:22:59.961Z,10.70
2018-07-14T12:23:59.948Z,13.90
2018-07-14T12:24:59.961Z,13.70
2018-07-14T12:25:59.927Z,8.00
2018-07-14T12:26:59.916Z,10.50
2018-07-14T12:27:59.931Z,12.20
2018-07-14T12:28:59.894Z,8.80
2018-07-14T12:29:59.906Z,9.30
2018-07-14T12:30:59.872Z,11.00
2018-07-14T12:31:59.860Z,10.10
2018-07-14T12:32:59.849Z,7.90
2018-07-14T12:33:59.838Z,8.40
2018-07-14T12:34:59.851Z,7.40
2018-07-14T12:35:59.817Z,10.20
2018-07-14T12:36:59.823Z,10.40
2018-07-14T12:37:59.795Z,8.20
2018-07-14T12:38:59.785Z,6.70
2018-07-14T12:39:59.795Z,9.50
2018-07-14T12:40:59.761Z,7.70
2018-07-14T12:41:59.750Z,8.50
2018-07-14T12:42:59.739Z,9.30
2018-07-14T12:43:59.728Z,7.40
2018-07-14T12:44:59.742Z,13.60
2018-07-14T12:45:59.707Z,7.60
2018-07-14T12:46:59.695Z,6.60
2018-07-14T12:47:59.684Z,7.40
2018-07-14T12:48:59.673Z,7.40
2018-07-14T12:49:59.685Z,9.00
2018-07-14T12:50:59.651Z,6.20
2018-07-14T12:51:59.641Z,8.70
2018-07-14T12:52:59.630Z,8.10
2018-07-14T12:53:59.620Z,9.30
2018-07-14T12:54:59.633Z,6.30
2018-07-14T12:55:59.598Z,6.80
2018-07-14T12:56:59.587Z,9.50
2018-07-14T12:57:59.581Z,9.10
2018-07-14T12:58:59.566Z,9.10
2018-07-14T12:59:59.631Z,6.50
2018-07-14T13:00:59.545Z,5.40
2018-07-14T13:01:59.533Z,5.80
2018-07-14T13:02:59.522Z,6.00
2018-07-14T13:03:59.514Z,9.10
2018-07-14T13:04:59.506Z,5.90
2018-07-14T13:05:59.513Z,10.60
2018-07-14T13:06:59.479Z,5.60
2018-07-14T13:07:59.469Z,5.50
2018-07-14T13:08:59.458Z,7.00
2018-07-14T13:09:59.470Z,6.30
2018-07-14T13:10:59.436Z,6.10
2018-07-14T13:11:59.426Z,6.90
2018-07-14T13:12:59.415Z,6.00
2018-07-14T13:13:59.405Z,5.00
2018-07-14T13:14:59.395Z,7.90
2018-07-14T13:15:59.408Z,7.90